Time;durP1;ratioP1;P1;durP2;ratioP2;P2;SDS_P1;SDS_P2;PMS_P1;PMS_P2;Temp;Humidity;BMP_temperature;BMP_pressure;BME280_temperature;BME280_humidity;BME280_pressure;Samples;Min_cycle;Max_cycle;Signal;HPM_P1;HPM_P2
2022/06/06 00:05:50;;;;;;;10.00;5.85;;;17.20;99.90;;;;;;6744581;88;20194;-78
2022/06/06 00:15:51;;;;;;;9.00;6.15;;;17.10;99.90;;;;;;6735347;88;20214;-78
2022/06/06 00:25:54;;;;;;;7.55;5.15;;;17.20;99.90;;;;;;6740220;88;20229;-78
2022/06/06 00:35:59;;;;;;;9.63;5.12;;;17.30;99.90;;;;;;6745337;88;20188;-78
2022/06/06 00:46:01;;;;;;;10.60;6.40;;;17.10;99.90;;;;;;6756344;87;20198;-78
2022/06/06 00:56:29;;;;;;;11.77;6.90;;;16.90;99.90;;;;;;6734513;88;20224;-77
2022/06/06 01:06:33;;;;;;;14.05;7.40;;;16.70;99.90;;;;;;6736682;88;20762;-78
2022/06/06 01:16:45;;;;;;;15.30;7.75;;;16.40;99.90;;;;;;6736659;88;20211;-78
2022/06/06 01:27:06;;;;;;;14.05;7.68;;;16.50;99.90;;;;;;6742256;88;20725;-78
2022/06/06 01:37:41;;;;;;;12.50;7.32;;;16.30;99.90;;;;;;6747567;88;20227;-78
2022/06/06 01:47:46;;;;;;;12.43;6.82;;;16.30;99.90;;;;;;6743526;87;20198;-78
2022/06/06 01:57:48;;;;;;;9.88;5.82;;;16.10;99.90;;;;;;6741478;88;20237;-78
2022/06/06 02:07:49;;;;;;;12.77;6.10;;;16.20;99.90;;;;;;6741040;88;20841;-78
2022/06/06 02:17:51;;;;;;;10.02;5.70;;;16.00;99.90;;;;;;6737103;88;20351;-78
2022/06/06 02:27:52;;;;;;;7.90;5.37;;;15.90;99.90;;;;;;6745563;88;20189;-78
2022/06/06 02:37:56;;;;;;;9.88;4.65;;;15.90;99.90;;;;;;6740192;88;20232;-78
2022/06/06 02:47:58;;;;;;;6.43;4.12;;;15.80;99.90;;;;;;6749084;88;20246;-78
2022/06/06 02:58:00;;;;;;;7.40;4.18;;;16.00;99.90;;;;;;6744286;88;20324;-79
2022/06/06 03:08:27;;;;;;;6.90;4.35;;;16.00;99.90;;;;;;6744964;88;20201;-80
2022/06/06 03:29:30;;;;;;;6.80;3.65;;;15.70;99.90;;;;;;6742215;88;20168;-80
2022/06/06 03:39:56;;;;;;;4.55;3.10;;;15.70;99.90;;;;;;6730679;88;20251;-79
2022/06/06 03:50:06;;;;;;;10.70;3.45;;;15.80;99.90;;;;;;6742963;88;20693;-78
2022/06/06 04:00:12;;;;;;;6.00;3.28;;;15.80;99.90;;;;;;6744814;87;20188;-79
2022/06/06 04:10:13;;;;;;;4.57;3.08;;;15.70;99.90;;;;;;6739848;88;20306;-79
2022/06/06 04:20:37;;;;;;;5.15;3.00;;;15.70;99.90;;;;;;6740041;88;20200;-79
2022/06/06 04:30:58;;;;;;;4.65;2.83;;;16.00;99.90;;;;;;6743609;88;20185;-78
2022/06/06 04:41:36;;;;;;;6.00;3.08;;;16.40;99.90;;;;;;6729510;88;20189;-78
2022/06/06 04:51:39;;;;;;;4.70;2.80;;;16.50;99.90;;;;;;6742784;88;20253;-78
2022/06/06 05:01:41;;;;;;;4.15;2.80;;;16.50;99.90;;;;;;6741920;88;20764;-78
2022/06/06 05:12:01;;;;;;;4.45;2.60;;;16.50;99.90;;;;;;6747172;88;20205;-79
2022/06/06 05:22:20;;;;;;;4.12;2.58;;;16.40;99.90;;;;;;6751399;87;20181;-79
2022/06/06 07:23:39;;;;;;;2.17;0.90;;;20.10;99.90;;;;;;6752013;88;20231;-85
2022/06/06 07:44:21;;;;;;;3.07;0.80;;;21.10;99.50;;;;;;6718186;88;20572;-87
2022/06/06 07:55:03;;;;;;;2.62;0.60;;;21.20;98.30;;;;;;6698623;89;20209;-83
2022/06/06 08:05:39;;;;;;;1.33;0.57;;;21.40;95.00;;;;;;6626863;89;20261;-84
2022/06/06 08:15:45;;;;;;;3.15;0.70;;;21.70;94.30;;;;;;6627705;89;20254;-82
2022/06/06 08:25:48;;;;;;;3.00;0.80;;;21.80;93.20;;;;;;6622280;90;20165;-83
2022/06/06 08:36:08;;;;;;;1.20;0.60;;;21.90;93.80;;;;;;6627602;89;20783;-82
2022/06/06 08:46:31;;;;;;;1.85;0.70;;;22.70;92.40;;;;;;6660475;89;20303;-85
2022/06/06 08:57:03;;;;;;;1.48;0.68;;;21.60;94.50;;;;;;6659896;89;20204;-83
2022/06/06 09:07:04;;;;;;;1.73;0.80;;;21.10;94.90;;;;;;6636339;89;20230;-83
2022/06/06 09:17:35;;;;;;;2.03;0.62;;;21.20;95.60;;;;;;6660683;89;20686;-84
2022/06/06 09:28:01;;;;;;;2.20;0.93;;;20.60;96.60;;;;;;6694910;89;20667;-85
2022/06/06 09:38:31;;;;;;;3.62;0.80;;;20.10;99.90;;;;;;6700601;88;20193;-84
2022/06/06 09:49:08;;;;;;;1.98;0.95;;;18.10;99.90;;;;;;6599011;90;20180;-83
2022/06/06 09:59:30;;;;;;;1.87;0.70;;;18.70;99.90;;;;;;6565613;90;20805;-83
2022/06/06 10:09:49;;;;;;;3.37;0.75;;;21.10;99.90;;;;;;6564383;90;20492;-84
2022/06/06 10:20:07;;;;;;;1.48;0.70;;;22.10;99.90;;;;;;6612485;89;20199;-84
2022/06/06 10:30:22;;;;;;;1.52;0.75;;;21.70;99.90;;;;;;6626093;89;20177;-83
2022/06/06 10:40:23;;;;;;;3.00;0.80;;;20.80;99.90;;;;;;6644553;89;20742;-84
2022/06/06 10:50:29;;;;;;;1.25;0.88;;;20.00;99.90;;;;;;6646846;89;20173;-83
2022/06/06 11:10:43;;;;;;;3.37;0.98;;;17.10;99.90;;;;;;6703700;88;20245;-80
2022/06/06 11:21:17;;;;;;;8.75;0.98;;;16.10;99.90;;;;;;6694462;88;20192;-79
2022/06/06 11:31:49;;;;;;;2.00;0.80;;;16.70;99.90;;;;;;6673305;89;20209;-76
2022/06/06 11:41:50;;;;;;;2.65;0.60;;;18.60;99.90;;;;;;6671301;88;20202;-76
2022/06/06 11:52:18;;;;;;;2.25;0.70;;;21.90;99.90;;;;;;6674119;88;20217;-80
2022/06/06 12:02:46;;;;;;;1.10;0.52;;;22.60;99.90;;;;;;6676581;89;20195;-79
2022/06/06 12:13:16;;;;;;;2.60;0.80;;;23.20;99.90;;;;;;6676039;89;20188;-79
2022/06/06 12:23:47;;;;;;;1.50;0.70;;;24.30;99.90;;;;;;6674628;89;20176;-81
2022/06/06 12:34:01;;;;;;;2.05;1.00;;;26.30;99.90;;;;;;6693441;89;20208;-80
2022/06/06 12:44:06;;;;;;;2.97;0.88;;;26.40;95.90;;;;;;6691976;89;20781;-80
2022/06/06 12:54:30;;;;;;;2.20;1.00;;;25.40;93.30;;;;;;6694492;89;20360;-80
2022/06/06 13:05:02;;;;;;;1.42;0.77;;;25.20;90.30;;;;;;6695871;88;20220;-80
2022/06/06 13:15:16;;;;;;;2.42;0.80;;;24.80;90.10;;;;;;6681258;89;20241;-78
2022/06/06 13:25:37;;;;;;;;;;;24.40;90.20;;;;;;6725617;78;20189;-80
2022/06/06 13:36:01;;;;;;;1.70;0.90;;;24.70;90.40;;;;;;6733732;88;20037;-79
2022/06/06 13:46:37;;;;;;;1.87;0.88;;;23.90;88.00;;;;;;6717030;88;20190;-81
2022/06/06 13:57:08;;;;;;;1.90;0.70;;;24.00;88.10;;;;;;6720113;88;20727;-82
2022/06/06 14:07:22;;;;;;;1.50;0.80;;;24.30;85.70;;;;;;6727520;88;20883;-81
2022/06/06 14:17:29;;;;;;;1.92;0.82;;;23.30;88.30;;;;;;6724626;88;20193;-80
2022/06/06 14:27:31;;;;;;;2.08;0.80;;;22.90;89.50;;;;;;6723308;88;20212;-81
2022/06/06 14:37:34;;;;;;;1.87;0.65;;;22.80;88.40;;;;;;6724322;88;20247;-80
2022/06/06 14:58:39;;;;;;;1.42;0.70;;;24.80;82.20;;;;;;6741378;88;20157;-81
2022/06/06 15:09:08;;;;;;;2.47;0.80;;;23.40;80.80;;;;;;6742253;88;20613;-80
2022/06/06 15:19:30;;;;;;;1.42;0.60;;;23.30;83.10;;;;;;6727934;88;20223;-80
2022/06/06 15:29:57;;;;;;;3.67;0.75;;;24.40;80.40;;;;;;6721157;88;20733;-79
2022/06/06 15:40:17;;;;;;;1.37;0.60;;;25.40;78.20;;;;;;6722884;88;20193;-79
2022/06/06 15:50:26;;;;;;;2.33;0.62;;;25.60;76.40;;;;;;6724462;88;20208;-82
2022/06/06 16:00:33;;;;;;;1.87;0.65;;;24.00;78.50;;;;;;6730045;88;20190;-80
2022/06/06 16:10:52;;;;;;;1.40;0.60;;;22.90;81.20;;;;;;6720297;88;20186;-80
2022/06/06 16:21:07;;;;;;;3.12;0.70;;;24.90;78.80;;;;;;6726339;88;20207;-80
2022/06/06 16:31:08;;;;;;;1.90;0.60;;;23.80;78.70;;;;;;6725096;88;20193;-80
2022/06/06 16:52:13;;;;;;;1.45;0.60;;;22.40;82.30;;;;;;6736695;88;20146;-80
2022/06/06 17:02:17;;;;;;;1.23;0.55;;;22.20;84.00;;;;;;6724545;88;20692;-78
2022/06/06 17:12:37;;;;;;;2.23;0.60;;;22.30;83.60;;;;;;6721654;88;20186;-80
2022/06/06 17:22:38;;;;;;;2.67;0.60;;;22.00;86.70;;;;;;6733742;88;20162;-81
2022/06/06 17:42:50;;;;;;;3.65;0.93;;;21.40;88.40;;;;;;6727547;88;20234;-79
2022/06/06 17:53:11;;;;;;;3.05;0.70;;;21.40;88.50;;;;;;6713068;88;20375;-78
2022/06/06 18:03:29;;;;;;;3.15;0.60;;;21.10;90.10;;;;;;6707578;88;20250;-80
2022/06/06 18:13:56;;;;;;;1.55;0.60;;;20.70;91.00;;;;;;6710727;88;20670;-79
2022/06/06 18:24:04;;;;;;;1.30;0.40;;;21.10;90.00;;;;;;6707597;88;20175;-79
2022/06/06 18:34:16;;;;;;;2.20;0.55;;;20.70;89.00;;;;;;6716062;88;20210;-79
2022/06/06 18:44:23;;;;;;;1.65;0.50;;;20.60;88.50;;;;;;6737496;88;20178;-80
2022/06/06 18:54:35;;;;;;;1.67;0.60;;;21.30;86.20;;;;;;6737908;88;20296;-79
2022/06/06 19:04:42;;;;;;;1.40;0.50;;;20.60;87.30;;;;;;6718318;88;20205;-78
2022/06/06 19:14:52;;;;;;;1.40;0.52;;;20.30;89.60;;;;;;6727505;88;20266;-80
2022/06/06 19:24:57;;;;;;;1.75;0.60;;;20.10;90.60;;;;;;6702704;88;20199;-78
2022/06/06 19:35:01;;;;;;;2.83;0.55;;;19.80;90.80;;;;;;6702961;88;20202;-78
2022/06/06 19:45:11;;;;;;;1.30;0.70;;;19.60;90.60;;;;;;6705432;88;20340;-78
2022/06/06 19:55:18;;;;;;;1.58;0.70;;;19.40;91.40;;;;;;6702420;88;20359;-77
2022/06/06 20:05:20;;;;;;;1.87;0.82;;;19.40;91.90;;;;;;6712286;88;20696;-77
2022/06/06 20:15:27;;;;;;;1.52;0.70;;;19.20;92.40;;;;;;6715684;88;20202;-77
2022/06/06 20:25:36;;;;;;;5.07;0.70;;;19.10;93.10;;;;;;6715696;88;20193;-77
2022/06/06 20:35:37;;;;;;;1.60;0.60;;;19.00;93.60;;;;;;6700888;88;20210;-78
2022/06/06 20:45:48;;;;;;;2.00;0.82;;;18.90;94.60;;;;;;6709333;88;20248;-79
2022/06/06 20:56:05;;;;;;;1.60;0.70;;;18.90;95.30;;;;;;6711372;88;22930;-78
2022/06/06 21:06:06;;;;;;;1.45;0.60;;;18.80;96.50;;;;;;6710972;88;20192;-79
2022/06/06 21:16:09;;;;;;;3.10;0.90;;;18.70;97.70;;;;;;6712751;88;20429;-79
2022/06/06 21:26:12;;;;;;;3.75;1.05;;;18.50;98.90;;;;;;6713666;88;20182;-78
2022/06/06 21:36:13;;;;;;;1.87;0.90;;;18.40;99.80;;;;;;6710234;88;20622;-78
2022/06/06 21:46:14;;;;;;;4.70;0.90;;;18.20;99.90;;;;;;6708539;88;20201;-78
2022/06/06 21:56:15;;;;;;;1.90;0.60;;;18.00;99.90;;;;;;6715075;88;20210;-79
2022/06/06 22:06:16;;;;;;;1.70;0.70;;;17.80;99.90;;;;;;6718245;88;20357;-79
2022/06/06 22:16:18;;;;;;;1.97;0.80;;;17.90;99.90;;;;;;6716761;88;20217;-78
2022/06/06 22:26:20;;;;;;;2.58;0.85;;;17.80;99.90;;;;;;6714662;88;20518;-78
2022/06/06 22:36:21;;;;;;;3.83;0.80;;;17.70;99.90;;;;;;6711156;88;20207;-78
2022/06/06 22:46:21;;;;;;;3.33;0.70;;;17.50;99.90;;;;;;6713218;88;20193;-79
2022/06/06 22:56:22;;;;;;;3.03;0.80;;;17.30;99.90;;;;;;6711845;88;20720;-79
2022/06/06 23:06:23;;;;;;;2.60;1.02;;;17.10;99.90;;;;;;6710784;88;20214;-79
2022/06/06 23:16:23;;;;;;;1.85;0.93;;;17.00;99.90;;;;;;6707982;88;20213;-79
2022/06/06 23:26:24;;;;;;;1.48;0.88;;;16.90;99.90;;;;;;6711283;88;20380;-79
2022/06/06 23:36:47;;;;;;;3.20;0.90;;;16.80;99.90;;;;;;6720310;77;20185;-80
2022/06/06 23:57:15;;;;;;;1.95;0.80;;;16.50;99.90;;;;;;6709857;88;20173;-81
